Parana — DHDT2 — position and weather

sailwx.info

Track history (hours):
 
Tides and Currents Weather Stations Pressure Air Temp Water Temp Dewpoint Dewpoint Depression Visibility Wind Speed Wind Dir Waves Ship Positions

Parana

Last reported at 2018-Aug-08 06:13 UTC. Time now 2018-Aug-14 13:46 UTC.
Position S 24°54' W 046°46'.

Length 183 m; draft 8.2 m.

Type: Cargo ship. MMSI: 218562000.

Date/timePositionNaut miles runAvg speedWind from/ knotsBaromVisibWave heightAir tempDewpointWater temp
2018-Aug-08 06:13S 24°54' W 046°46'315.2
2018-Aug-08 06:00S 24°51' W 046°44'815.3
2018-Aug-08 05:30S 24°44' W 046°41'714.9
2018-Aug-08 05:01S 24°37' W 046°38'814.7
2018-Aug-08 04:29S 24°30' W 046°34'714.6
2018-Aug-08 04:00S 24°24' W 046°31'714.8
2018-Aug-08 03:31S 24°17' W 046°28'714.9
2018-Aug-08 03:01S 24°10' W 046°25'714.9
2018-Aug-08 02:31S 24°03' W 046°21'4 8.7
2018-Aug-08 02:00S 23°60' W 046°19'2 3.4
2018-Aug-08 01:25S 23°58' W 046°18'0 0.0
2018-Aug-07 22:25S 23°58' W 046°18'0 0.0
2018-Aug-07 21:49S 23°58' W 046°18'0 0.0
2018-Aug-07 21:13S 23°58' W 046°18'0 0.0
2018-Aug-07 20:49S 23°58' W 046°18'0 0.0
2018-Aug-07 20:25S 23°58' W 046°18'0 0.0
2018-Aug-07 19:49S 23°58' W 046°18'0 0.0
2018-Aug-07 19:13S 23°58' W 046°18'0 0.0
2018-Aug-07 14:25S 23°58' W 046°18'0 0.0
2018-Aug-07 10:11S 23°58' W 046°18'0 0.0
2018-Aug-07 10:00S 23°58' W 046°18'1 2.0
2018-Aug-07 09:29S 23°58' W 046°17'3 6.2
2018-Aug-07 09:00S 24°00' W 046°20'4 8.2
2018-Aug-07 08:30S 24°04' W 046°22'5 9.2
2018-Aug-07 08:00S 24°08' W 046°24'0 0.9
2018-Aug-07 07:30S 24°08' W 046°24'1 1.0
2018-Aug-07 07:00S 24°09' W 046°25'0 0.7
2018-Aug-07 06:30S 24°09' W 046°25'1 1.7
2018-Aug-07 06:00S 24°10' W 046°25'713.5
2018-Aug-07 05:30S 24°16' W 046°27'713.4
2018-Aug-07 05:00S 24°22' W 046°30'713.6
2018-Aug-07 04:30S 24°28' W 046°33'713.4
2018-Aug-07 04:00S 24°34' W 046°36'713.4
2018-Aug-07 03:29S 24°41' W 046°39'  
Track history (hours):
 
Tides and Currents Weather Stations Pressure Air Temp Water Temp Dewpoint Dewpoint Depression Visibility Wind Speed Wind Dir Waves Ship Positions

Parana

Last reported at 2018-Aug-08 06:13 UTC. Time now 2018-Aug-14 13:46 UTC.
Position S 24°54' W 046°46'.

Length 183 m; draft 8.2 m.

Type: Cargo ship. MMSI: 218562000.

Date/timePositionNaut miles runAvg speedWind from/ knotsBaromVisibWave heightAir tempDewpointWater temp
2018-Aug-08 06:13S 24°54' W 046°46'315.2
2018-Aug-08 06:00S 24°51' W 046°44'815.3
2018-Aug-08 05:30S 24°44' W 046°41'714.9
2018-Aug-08 05:01S 24°37' W 046°38'814.7
2018-Aug-08 04:29S 24°30' W 046°34'714.6
2018-Aug-08 04:00S 24°24' W 046°31'714.8
2018-Aug-08 03:31S 24°17' W 046°28'714.9
2018-Aug-08 03:01S 24°10' W 046°25'714.9
2018-Aug-08 02:31S 24°03' W 046°21'4 8.7
2018-Aug-08 02:00S 23°60' W 046°19'2 3.4
2018-Aug-08 01:25S 23°58' W 046°18'0 0.0
2018-Aug-07 22:25S 23°58' W 046°18'0 0.0
2018-Aug-07 21:49S 23°58' W 046°18'0 0.0
2018-Aug-07 21:13S 23°58' W 046°18'0 0.0
2018-Aug-07 20:49S 23°58' W 046°18'0 0.0
2018-Aug-07 20:25S 23°58' W 046°18'0 0.0
2018-Aug-07 19:49S 23°58' W 046°18'0 0.0
2018-Aug-07 19:13S 23°58' W 046°18'0 0.0
2018-Aug-07 14:25S 23°58' W 046°18'0 0.0
2018-Aug-07 10:11S 23°58' W 046°18'0 0.0
2018-Aug-07 10:00S 23°58' W 046°18'1 2.0
2018-Aug-07 09:29S 23°58' W 046°17'3 6.2
2018-Aug-07 09:00S 24°00' W 046°20'4 8.2
2018-Aug-07 08:30S 24°04' W 046°22'5 9.2
2018-Aug-07 08:00S 24°08' W 046°24'0 0.9
2018-Aug-07 07:30S 24°08' W 046°24'1 1.0
2018-Aug-07 07:00S 24°09' W 046°25'0 0.7
2018-Aug-07 06:30S 24°09' W 046°25'1 1.7
2018-Aug-07 06:00S 24°10' W 046°25'713.5
2018-Aug-07 05:30S 24°16' W 046°27'713.4
2018-Aug-07 05:00S 24°22' W 046°30'713.6
2018-Aug-07 04:30S 24°28' W 046°33'713.4
2018-Aug-07 04:00S 24°34' W 046°36'713.4
2018-Aug-07 03:29S 24°41' W 046°39'  

Dump ship's entire track history